createdAt,value
2023-04-02T00:00:11.953Z,83.52
2023-04-02T00:01:19.798Z,83.57
2023-04-02T00:02:21.324Z,83.56
2023-04-02T00:03:24.188Z,83.50
2023-04-02T00:04:28.513Z,83.68
2023-04-02T00:05:51.380Z,83.42
2023-04-02T00:07:15.445Z,83.65
2023-04-02T00:08:29.741Z,83.92
2023-04-02T00:09:33.763Z,83.68
2023-04-02T00:10:36.918Z,83.85
2023-04-02T00:11:41.078Z,83.64
2023-04-02T00:12:58.758Z,84.19
2023-04-02T00:14:01.657Z,84.36
2023-04-02T00:15:06.524Z,84.48
2023-04-02T00:16:11.451Z,84.14
2023-04-02T00:17:13.889Z,83.78
2023-04-02T00:18:19.769Z,84.11
2023-04-02T00:19:35.279Z,84.25
2023-04-02T00:20:40.684Z,84.16
2023-04-02T00:21:44.325Z,83.97
2023-04-02T00:22:46.395Z,84.20
2023-04-02T00:23:48.027Z,83.64
2023-04-02T00:24:53.903Z,84.03
2023-04-02T00:25:55.510Z,83.88
2023-04-02T00:26:57.728Z,83.99
2023-04-02T00:27:59.441Z,84.00
2023-04-02T00:29:02.368Z,84.09
2023-04-02T00:30:08.410Z,84.21
2023-04-02T00:31:10.576Z,84.23
2023-04-02T00:32:18.241Z,84.30
2023-04-02T00:33:21.523Z,84.13
2023-04-02T00:34:26.062Z,84.01
2023-04-02T00:35:29.334Z,84.50
2023-04-02T00:36:35.877Z,84.15
2023-04-02T00:37:42.697Z,84.36
2023-04-02T00:38:46.712Z,84.50
2023-04-02T00:39:49.867Z,84.52
2023-04-02T00:40:52.627Z,83.93
2023-04-02T00:42:04.747Z,84.02
2023-04-02T00:43:07.406Z,84.22
2023-04-02T00:44:13.750Z,84.60
2023-04-02T00:45:19.169Z,84.34
2023-04-02T00:46:24.511Z,84.05
2023-04-02T00:47:30.594Z,84.30
2023-04-02T00:48:32.258Z,84.28
2023-04-02T00:49:39.040Z,84.39
2023-04-02T00:50:42.719Z,84.29
2023-04-02T00:51:49.884Z,84.76
2023-04-02T00:52:52.842Z,84.33
2023-04-02T00:53:55.561Z,84.63
2023-04-02T00:55:06.722Z,84.25
2023-04-02T00:56:14.299Z,84.54
2023-04-02T00:57:20.512Z,84.76
2023-04-02T00:58:33.638Z,84.33
2023-04-02T00:59:36.680Z,84.44
2023-04-02T01:00:38.556Z,84.42
2023-04-02T01:01:42.989Z,84.70
2023-04-02T01:03:04.891Z,84.34
2023-04-02T01:04:25.656Z,84.60
2023-04-02T01:05:27.945Z,84.73
2023-04-02T01:06:37.634Z,84.81
2023-04-02T01:07:42.560Z,84.76
2023-04-02T01:08:52.011Z,84.87
2023-04-02T01:10:00.140Z,84.81
2023-04-02T01:11:01.620Z,84.75
2023-04-02T01:12:21.782Z,84.80
2023-04-02T01:13:29.508Z,84.65
2023-04-02T01:14:35.967Z,84.94
2023-04-02T01:15:41.389Z,84.89
2023-04-02T01:16:50.866Z,85.08
2023-04-02T01:18:03.673Z,84.70
2023-04-02T01:19:27.292Z,84.94
2023-04-02T01:20:48.266Z,85.01
2023-04-02T01:22:09.220Z,84.71
2023-04-02T01:23:18.446Z,85.06
2023-04-02T01:24:21.195Z,84.85
2023-04-02T01:25:28.864Z,85.00
2023-04-02T01:26:39.892Z,85.13
2023-04-02T01:27:47.284Z,85.07
2023-04-02T01:28:54.915Z,85.21
2023-04-02T01:29:58.574Z,84.88
2023-04-02T01:31:01.882Z,85.26
2023-04-02T01:32:10.566Z,84.77
2023-04-02T01:33:12.981Z,85.10
2023-04-02T01:34:16.926Z,85.31
2023-04-02T01:35:21.154Z,85.33
2023-04-02T01:36:35.728Z,85.32
2023-04-02T01:37:37.338Z,85.22
2023-04-02T01:38:44.056Z,85.17
2023-04-02T01:40:00.699Z,85.61
2023-04-02T01:41:06.996Z,85.35
2023-04-02T01:42:12.005Z,85.83
2023-04-02T01:43:30.912Z,85.96
2023-04-02T01:44:37.756Z,85.98
2023-04-02T01:45:39.271Z,85.74
2023-04-02T01:46:45.967Z,86.05
2023-04-02T01:47:49.006Z,86.45
2023-04-02T01:48:51.869Z,86.13
2023-04-02T01:50:01.050Z,86.16
2023-04-02T01:51:09.652Z,86.20
2023-04-02T01:52:18.445Z,86.25
2023-04-02T01:53:22.001Z,86.51
2023-04-02T01:54:24.139Z,86.22
2023-04-02T01:55:31.272Z,86.61
2023-04-02T01:56:34.179Z,86.37
2023-04-02T01:57:36.349Z,86.57
2023-04-02T01:58:38.603Z,86.56
2023-04-02T01:59:40.186Z,86.16
2023-04-02T02:00:56.170Z,86.17
2023-04-02T02:02:01.837Z,86.31
2023-04-02T02:03:06.615Z,86.23
2023-04-02T02:04:12.467Z,86.15
2023-04-02T02:05:17.926Z,85.97
2023-04-02T02:06:23.225Z,85.58
2023-04-02T02:07:28.568Z,85.70
2023-04-02T02:08:41.238Z,86.06
2023-04-02T02:09:46.543Z,85.85
2023-04-02T02:10:50.524Z,85.96
2023-04-02T02:11:52.033Z,85.84
2023-04-02T02:12:54.191Z,86.16
2023-04-02T02:13:58.923Z,85.70
2023-04-02T02:15:00.994Z,85.77
2023-04-02T02:16:04.193Z,85.75
2023-04-02T02:17:13.750Z,86.12
2023-04-02T02:18:16.797Z,85.82
2023-04-02T02:19:22.535Z,85.91
2023-04-02T02:20:25.030Z,86.42
2023-04-02T02:21:35.827Z,86.25
2023-04-02T02:22:39.082Z,86.35
2023-04-02T02:23:40.596Z,86.35
2023-04-02T02:24:42.488Z,86.26
2023-04-02T02:25:48.507Z,86.57
2023-04-02T02:26:59.616Z,86.44
2023-04-02T02:28:07.781Z,86.31
2023-04-02T02:29:12.850Z,86.58
2023-04-02T02:30:19.366Z,86.25
2023-04-02T02:31:29.768Z,86.57
2023-04-02T02:32:34.712Z,86.35
2023-04-02T02:33:41.841Z,86.35
2023-04-02T02:34:49.197Z,86.23
2023-04-02T02:36:03.669Z,86.17
2023-04-02T02:37:19.127Z,86.15
2023-04-02T02:38:39.422Z,86.04
2023-04-02T02:39:51.737Z,86.11
2023-04-02T02:40:56.908Z,86.60
2023-04-02T02:42:12.596Z,86.15
2023-04-02T02:43:14.563Z,86.34
2023-04-02T02:44:19.868Z,86.68
2023-04-02T02:45:27.978Z,86.24
2023-04-02T02:46:30.620Z,86.50
2023-04-02T02:47:38.847Z,86.74
2023-04-02T02:48:44.264Z,86.50
2023-04-02T02:49:49.901Z,86.69
2023-04-02T02:50:55.004Z,86.34
2023-04-02T02:52:12.892Z,86.54
2023-04-02T02:53:24.425Z,86.45
2023-04-02T02:54:30.670Z,86.57
2023-04-02T02:55:37.465Z,86.75
2023-04-02T02:57:05.673Z,86.16
2023-04-02T02:58:23.804Z,86.10
2023-04-02T03:00:01.936Z,86.04
2023-04-02T03:01:06.630Z,85.93
2023-04-02T03:02:10.293Z,86.01
2023-04-02T03:03:18.044Z,85.92
2023-04-02T03:04:24.149Z,85.65
2023-04-02T03:05:29.835Z,85.83
2023-04-02T03:06:36.987Z,85.30
2023-04-02T03:07:39.967Z,85.27
2023-04-02T03:08:53.925Z,85.60
2023-04-02T03:10:14.981Z,85.67
2023-04-02T03:11:21.642Z,85.43
2023-04-02T03:12:29.107Z,85.54
2023-04-02T03:13:33.177Z,85.32
2023-04-02T03:14:56.997Z,84.64
2023-04-02T03:16:15.363Z,84.78
2023-04-02T03:17:26.100Z,84.36
2023-04-02T03:18:44.434Z,84.30
2023-04-02T03:19:49.438Z,84.09
2023-04-02T03:20:58.843Z,83.93
2023-04-02T03:22:09.208Z,83.84
2023-04-02T03:23:27.922Z,84.02
2023-04-02T03:24:36.923Z,83.02
2023-04-02T03:25:48.733Z,83.07
2023-04-02T03:27:15.051Z,82.86
2023-04-02T03:28:23.822Z,83.07
2023-04-02T03:29:28.132Z,82.46
2023-04-02T03:30:33.021Z,82.41
2023-04-02T03:31:38.709Z,82.52
2023-04-02T03:32:42.580Z,82.36
2023-04-02T03:33:52.581Z,81.92
2023-04-02T03:34:59.571Z,81.83
2023-04-02T03:36:13.060Z,81.37
2023-04-02T03:37:26.920Z,81.40
2023-04-02T03:38:49.584Z,81.19
2023-04-02T03:39:53.994Z,80.75
2023-04-02T03:41:01.290Z,80.75
2023-04-02T03:42:26.855Z,80.79
2023-04-02T03:43:36.878Z,80.48
2023-04-02T03:44:48.096Z,80.63
2023-04-02T03:46:14.059Z,79.96
2023-04-02T03:47:33.734Z,80.06
2023-04-02T03:48:40.841Z,79.94
2023-04-02T03:50:01.628Z,79.97
2023-04-02T03:51:14.670Z,79.34
2023-04-02T03:52:28.839Z,79.62
2023-04-02T03:53:33.927Z,78.97
2023-04-02T03:54:36.381Z,79.04
2023-04-02T03:55:39.289Z,79.09
2023-04-02T03:56:48.542Z,79.44
2023-04-02T03:58:09.370Z,79.18
2023-04-02T03:59:22.330Z,79.57
2023-04-02T04:00:24.014Z,79.08
2023-04-02T04:01:34.546Z,78.96
2023-04-02T04:02:49.205Z,79.07
2023-04-02T04:03:54.222Z,78.97
2023-04-02T04:04:56.460Z,79.16
2023-04-02T04:06:06.056Z,79.13
2023-04-02T04:07:11.773Z,79.45
2023-04-02T04:08:18.871Z,79.38
2023-04-02T04:09:32.332Z,79.23
2023-04-02T04:10:34.864Z,79.42
2023-04-02T04:11:39.909Z,79.51
2023-04-02T04:12:47.313Z,79.41
2023-04-02T04:13:53.645Z,79.64
2023-04-02T04:15:15.678Z,79.71
2023-04-02T04:16:21.825Z,79.87
2023-04-02T04:17:30.257Z,79.79
2023-04-02T04:18:41.895Z,79.31
2023-04-02T04:20:10.383Z,79.13
2023-04-02T04:21:15.632Z,79.16
2023-04-02T04:22:19.645Z,79.39
2023-04-02T04:23:31.708Z,79.49
2023-04-02T04:24:39.340Z,80.09
2023-04-02T04:25:44.073Z,80.13
2023-04-02T04:26:56.830Z,79.69
2023-04-02T04:27:58.921Z,79.84
2023-04-02T04:29:12.754Z,79.85
2023-04-02T04:30:20.899Z,79.93
2023-04-02T04:31:34.622Z,80.05
2023-04-02T04:32:43.071Z,80.37
2023-04-02T04:34:05.711Z,80.58
2023-04-02T04:35:34.217Z,79.53
2023-04-02T04:36:54.247Z,79.53
2023-04-02T04:38:23.782Z,80.00
2023-04-02T04:39:29.640Z,80.60
2023-04-02T04:40:34.457Z,80.38
2023-04-02T04:41:39.165Z,80.57
2023-04-02T04:42:42.006Z,80.75
2023-04-02T04:43:49.514Z,80.77
2023-04-02T04:44:51.124Z,80.92
2023-04-02T04:45:59.896Z,80.98
2023-04-02T04:47:04.087Z,80.92
2023-04-02T04:48:09.132Z,80.52
2023-04-02T04:49:11.266Z,80.50
2023-04-02T04:50:19.220Z,80.24
2023-04-02T04:51:36.191Z,80.26
2023-04-02T04:52:40.627Z,79.05
2023-04-02T04:53:50.935Z,78.78
2023-04-02T04:54:54.453Z,78.88
2023-04-02T04:56:15.918Z,78.47
2023-04-02T04:57:33.912Z,78.42
2023-04-02T04:58:47.499Z,78.23
2023-04-02T04:59:55.258Z,78.17
2023-04-02T05:00:57.048Z,78.63
2023-04-02T05:02:11.620Z,77.83
2023-04-02T05:03:19.645Z,77.12
2023-04-02T05:04:21.427Z,76.70
2023-04-02T05:05:29.362Z,77.15
2023-04-02T05:06:51.298Z,76.83
2023-04-02T05:07:59.775Z,77.13
2023-04-02T05:09:28.376Z,77.05
2023-04-02T05:10:40.580Z,77.12
2023-04-02T05:11:46.011Z,77.48
2023-04-02T05:12:52.642Z,77.88
2023-04-02T05:13:59.840Z,78.03
2023-04-02T05:15:11.307Z,77.85
2023-04-02T05:16:17.908Z,77.48
2023-04-02T05:17:23.677Z,77.30
2023-04-02T05:18:34.733Z,77.46
2023-04-02T05:20:10.350Z,77.45
2023-04-02T05:21:18.831Z,77.58
2023-04-02T05:22:30.102Z,77.98
2023-04-02T05:23:37.564Z,77.83
2023-04-02T05:24:43.767Z,77.96
2023-04-02T05:25:59.350Z,78.33
2023-04-02T05:27:06.075Z,77.71
2023-04-02T05:28:29.292Z,78.00
2023-04-02T05:29:34.453Z,78.02
2023-04-02T05:30:39.066Z,77.74
2023-04-02T05:31:44.971Z,77.70
2023-04-02T05:32:51.313Z,77.82
2023-04-02T05:33:55.255Z,78.07
2023-04-02T05:34:57.703Z,78.54
2023-04-02T05:36:09.503Z,78.31
2023-04-02T05:37:23.765Z,78.11
2023-04-02T05:38:29.585Z,77.75
2023-04-02T05:39:32.927Z,78.30
2023-04-02T05:40:39.804Z,78.24
2023-04-02T05:41:43.911Z,77.86
2023-04-02T05:42:49.373Z,78.04
2023-04-02T05:43:54.437Z,77.87
2023-04-02T05:45:11.114Z,78.11
2023-04-02T05:46:17.500Z,77.78
2023-04-02T05:47:22.861Z,77.34
2023-04-02T05:48:34.849Z,77.47
2023-04-02T05:49:39.206Z,77.32
2023-04-02T05:50:47.738Z,77.51
2023-04-02T05:51:57.500Z,77.72
2023-04-02T05:53:14.367Z,77.28
2023-04-02T05:54:27.786Z,77.55
2023-04-02T05:55:37.964Z,76.73
2023-04-02T05:56:44.625Z,76.42
2023-04-02T05:58:10.469Z,76.31
2023-04-02T05:59:14.812Z,76.74
2023-04-02T06:00:20.547Z,76.72
2023-04-02T06:01:48.210Z,76.31
2023-04-02T06:03:08.579Z,76.11
2023-04-02T06:04:22.882Z,76.20
2023-04-02T06:05:27.928Z,76.17
2023-04-02T06:06:34.030Z,76.35
2023-04-02T06:07:56.065Z,76.17
2023-04-02T06:09:02.558Z,76.07
2023-04-02T06:10:07.811Z,75.64
2023-04-02T06:11:20.468Z,75.95
2023-04-02T06:12:25.637Z,75.72
2023-04-02T06:13:28.289Z,75.50
2023-04-02T06:14:30.678Z,75.46
2023-04-02T06:15:34.205Z,75.53
2023-04-02T06:16:45.852Z,75.32
2023-04-02T06:17:50.022Z,75.68
2023-04-02T06:18:51.909Z,75.32
2023-04-02T06:19:56.102Z,75.58
2023-04-02T06:20:58.863Z,75.62
2023-04-02T06:22:09.018Z,75.36
2023-04-02T06:23:22.870Z,75.28
2023-04-02T06:24:29.567Z,75.30
2023-04-02T06:25:38.501Z,75.69
2023-04-02T06:26:48.876Z,75.90
2023-04-02T06:27:56.321Z,75.80
2023-04-02T06:29:10.010Z,75.94
2023-04-02T06:30:24.550Z,76.14
2023-04-02T06:31:36.392Z,75.72
2023-04-02T06:32:40.818Z,75.55
2023-04-02T06:33:43.206Z,75.81
2023-04-02T06:34:49.105Z,75.68
2023-04-02T06:35:52.794Z,75.16
2023-04-02T06:37:04.348Z,76.14
2023-04-02T06:38:21.386Z,76.20
2023-04-02T06:39:24.072Z,76.71
2023-04-02T06:40:36.433Z,76.37
2023-04-02T06:41:43.921Z,76.51
2023-04-02T06:43:02.336Z,76.40
2023-04-02T06:44:24.358Z,76.11
2023-04-02T06:45:41.323Z,75.79
2023-04-02T06:46:53.845Z,75.59
2023-04-02T06:47:57.266Z,75.99
2023-04-02T06:49:28.133Z,76.52
2023-04-02T06:50:48.918Z,76.64
2023-04-02T06:51:54.565Z,77.11
2023-04-02T06:52:58.359Z,77.27
2023-04-02T06:54:00.549Z,76.77
2023-04-02T06:55:05.794Z,76.12
2023-04-02T06:56:19.105Z,76.65
2023-04-02T06:57:23.487Z,76.92
2023-04-02T06:58:26.662Z,76.95
2023-04-02T06:59:30.438Z,76.25
2023-04-02T07:00:39.162Z,76.38
2023-04-02T07:01:48.856Z,76.03
2023-04-02T07:02:51.179Z,76.00
2023-04-02T07:03:53.034Z,76.11
2023-04-02T07:05:06.003Z,76.35
2023-04-02T07:06:15.190Z,76.13
2023-04-02T07:07:17.438Z,76.18
2023-04-02T07:08:21.322Z,76.37
2023-04-02T07:09:22.877Z,76.47
2023-04-02T07:10:30.456Z,76.04
2023-04-02T07:11:31.855Z,75.91
2023-04-02T07:12:36.326Z,75.53
2023-04-02T07:13:37.920Z,75.52
2023-04-02T07:14:39.442Z,75.50
2023-04-02T07:15:45.785Z,75.83
2023-04-02T07:16:48.593Z,75.73
2023-04-02T07:17:50.704Z,76.21
2023-04-02T07:18:52.997Z,76.21
2023-04-02T07:19:54.599Z,75.59
2023-04-02T07:20:56.802Z,75.33
2023-04-02T07:22:01.114Z,74.80
2023-04-02T07:23:10.392Z,75.30
2023-04-02T07:24:14.095Z,75.52
2023-04-02T07:25:15.604Z,75.58
2023-04-02T07:26:19.379Z,75.09
2023-04-02T07:27:20.902Z,75.26
2023-04-02T07:28:23.087Z,75.27
2023-04-02T07:29:24.724Z,74.77
2023-04-02T07:30:26.586Z,74.78
2023-04-02T07:31:29.292Z,74.39
2023-04-02T07:32:34.006Z,74.66
2023-04-02T07:33:35.472Z,74.72
2023-04-02T07:34:37.239Z,74.27
2023-04-02T07:35:39.589Z,73.42
2023-04-02T07:36:44.538Z,73.42
2023-04-02T07:37:47.400Z,74.14
2023-04-02T07:38:50.848Z,73.91
2023-04-02T07:39:54.621Z,74.62
2023-04-02T07:40:56.178Z,74.53
2023-04-02T07:41:58.873Z,75.29
2023-04-02T07:43:00.738Z,75.86
2023-04-02T07:44:04.118Z,75.35
2023-04-02T07:45:09.493Z,74.56
2023-04-02T07:46:11.902Z,73.98
2023-04-02T07:47:15.190Z,74.03
2023-04-02T07:48:16.776Z,74.55
2023-04-02T07:49:21.377Z,74.58
2023-04-02T07:50:25.421Z,74.16
2023-04-02T07:51:30.924Z,73.66
2023-04-02T07:52:34.124Z,74.16
2023-04-02T07:53:38.034Z,74.75
2023-04-02T07:54:39.900Z,74.21
2023-04-02T07:55:41.332Z,73.83
2023-04-02T07:56:45.797Z,74.31
2023-04-02T07:57:53.297Z,73.50
2023-04-02T07:58:56.121Z,73.27
2023-04-02T07:59:57.753Z,73.65
2023-04-02T08:01:00.115Z,74.15
2023-04-02T08:02:04.129Z,73.97
2023-04-02T08:03:07.110Z,73.47
2023-04-02T08:04:17.959Z,73.03
2023-04-02T08:05:19.987Z,73.38
2023-04-02T08:06:22.414Z,73.04
2023-04-02T08:07:25.137Z,73.22
2023-04-02T08:08:26.595Z,73.41
2023-04-02T08:09:29.017Z,73.99
2023-04-02T08:10:31.076Z,74.28
2023-04-02T08:11:33.314Z,73.78
2023-04-02T08:12:35.221Z,73.67
2023-04-02T08:13:37.227Z,74.22
2023-04-02T08:14:39.781Z,73.95
2023-04-02T08:15:41.801Z,74.12
2023-04-02T08:16:54.321Z,74.48
2023-04-02T08:17:56.269Z,74.43
2023-04-02T08:18:57.796Z,74.52
2023-04-02T08:20:02.590Z,74.02
2023-04-02T08:21:10.043Z,74.73
2023-04-02T08:22:12.746Z,74.73
2023-04-02T08:23:18.749Z,75.15
2023-04-02T08:24:21.483Z,74.52
2023-04-02T08:25:23.135Z,75.34
2023-04-02T08:26:24.729Z,75.10
2023-04-02T08:27:26.589Z,74.73
2023-04-02T08:28:28.962Z,74.69
2023-04-02T08:29:35.504Z,74.93
2023-04-02T08:30:37.442Z,74.96
2023-04-02T08:31:39.054Z,74.87
2023-04-02T08:32:46.551Z,74.55
2023-04-02T08:33:50.419Z,74.42
2023-04-02T08:34:52.913Z,74.54
2023-04-02T08:35:54.744Z,74.04
2023-04-02T08:37:00.241Z,73.81
2023-04-02T08:38:02.067Z,74.11
2023-04-02T08:39:05.757Z,72.75
2023-04-02T08:40:23.732Z,72.65
2023-04-02T08:41:31.210Z,73.04
2023-04-02T08:42:44.148Z,73.17
2023-04-02T08:43:58.986Z,73.61
2023-04-02T08:45:25.324Z,74.24
2023-04-02T08:46:36.224Z,74.87
2023-04-02T08:47:40.793Z,75.22
2023-04-02T08:48:44.492Z,75.59
2023-04-02T08:49:55.007Z,75.01
2023-04-02T08:51:18.281Z,74.96
2023-04-02T08:52:29.970Z,74.67
2023-04-02T08:53:34.892Z,74.68
2023-04-02T08:54:39.404Z,74.97
2023-04-02T08:55:50.275Z,75.59
2023-04-02T08:56:56.605Z,74.60
2023-04-02T08:58:10.642Z,74.46
2023-04-02T08:59:25.240Z,75.46
2023-04-02T09:00:57.030Z,74.89
2023-04-02T09:02:00.765Z,75.33
2023-04-02T09:03:12.608Z,74.66
2023-04-02T09:04:24.935Z,74.44
2023-04-02T09:05:36.394Z,74.52
2023-04-02T09:06:47.304Z,73.74
2023-04-02T09:07:57.699Z,74.15
2023-04-02T09:09:00.451Z,74.73
2023-04-02T09:10:03.378Z,74.39
2023-04-02T09:11:28.406Z,74.04
2023-04-02T09:12:42.259Z,74.44
2023-04-02T09:13:52.010Z,73.66
2023-04-02T09:15:12.032Z,72.20
2023-04-02T09:16:16.251Z,71.37
2023-04-02T09:17:20.927Z,72.11
2023-04-02T09:18:24.047Z,72.57
2023-04-02T09:19:35.018Z,72.45
2023-04-02T09:20:39.125Z,72.27
2023-04-02T09:21:50.695Z,69.76
2023-04-02T09:23:01.391Z,67.95
2023-04-02T09:24:04.029Z,69.44
2023-04-02T09:25:13.293Z,69.34
2023-04-02T09:26:32.147Z,68.09
2023-04-02T09:27:36.650Z,69.19
2023-04-02T09:28:39.322Z,67.99
2023-04-02T09:29:44.758Z,68.25
2023-04-02T09:30:59.748Z,68.80
2023-04-02T09:32:16.061Z,69.42
2023-04-02T09:33:18.669Z,68.93
2023-04-02T09:34:28.955Z,68.15
2023-04-02T09:35:32.708Z,68.57
2023-04-02T09:36:39.430Z,67.99
2023-04-02T09:37:42.923Z,67.74
2023-04-02T09:39:01.531Z,68.07
2023-04-02T09:40:21.784Z,68.36
2023-04-02T09:41:27.472Z,68.54
2023-04-02T09:42:37.196Z,68.08
2023-04-02T09:43:41.561Z,68.66
2023-04-02T09:44:44.867Z,68.58
2023-04-02T09:45:55.997Z,68.27
2023-04-02T09:47:06.141Z,67.04
2023-04-02T09:48:40.779Z,66.13
2023-04-02T09:49:42.209Z,67.01
2023-04-02T09:50:48.827Z,66.71
2023-04-02T09:52:13.450Z,67.38
2023-04-02T09:53:37.231Z,65.10
2023-04-02T09:54:41.541Z,65.42
2023-04-02T09:55:43.108Z,65.96
2023-04-02T09:57:01.431Z,66.47
2023-04-02T09:58:09.882Z,65.50
2023-04-02T09:59:15.917Z,65.96
2023-04-02T10:00:39.734Z,66.20
2023-04-02T10:01:57.157Z,66.30
2023-04-02T10:03:20.806Z,65.53
2023-04-02T10:04:35.806Z,67.04
2023-04-02T10:05:40.909Z,67.09
2023-04-02T10:06:49.654Z,67.87
2023-04-02T10:08:06.528Z,67.86
2023-04-02T10:09:32.618Z,69.38
2023-04-02T10:10:45.936Z,68.77
2023-04-02T10:11:49.039Z,68.57
2023-04-02T10:12:59.644Z,68.78
2023-04-02T10:14:24.027Z,69.40
2023-04-02T10:15:35.319Z,70.04
2023-04-02T10:16:40.965Z,70.05
2023-04-02T10:17:51.107Z,69.35
2023-04-02T10:19:19.190Z,69.44
2023-04-02T10:20:23.163Z,68.75
2023-04-02T10:21:36.213Z,69.06
2023-04-02T10:22:37.797Z,67.73
2023-04-02T10:23:40.597Z,68.32
2023-04-02T10:24:42.077Z,69.08
2023-04-02T10:25:49.768Z,69.33
2023-04-02T10:27:05.039Z,69.73
2023-04-02T10:28:19.262Z,69.67
2023-04-02T10:29:33.758Z,69.42
2023-04-02T10:31:01.674Z,70.45
2023-04-02T10:32:12.537Z,70.28
2023-04-02T10:33:33.206Z,69.67
2023-04-02T10:34:37.352Z,70.55
2023-04-02T10:35:39.265Z,69.98
2023-04-02T10:36:53.034Z,70.48
2023-04-02T10:38:19.861Z,69.60
2023-04-02T10:39:25.193Z,69.04
2023-04-02T10:40:45.305Z,68.46
2023-04-02T10:41:54.356Z,68.08
2023-04-02T10:42:56.386Z,67.55
2023-04-02T10:44:22.618Z,66.70
2023-04-02T10:45:36.027Z,66.54
2023-04-02T10:46:56.537Z,64.68
2023-04-02T10:48:04.753Z,64.78
2023-04-02T10:49:20.424Z,64.38
2023-04-02T10:50:51.804Z,64.78
2023-04-02T10:52:10.564Z,65.88
2023-04-02T10:53:16.044Z,66.08
2023-04-02T10:54:17.570Z,65.52
2023-04-02T10:55:25.430Z,64.96
2023-04-02T10:56:35.191Z,65.02
2023-04-02T10:57:51.692Z,65.14
2023-04-02T10:59:02.652Z,64.54
2023-04-02T11:00:15.886Z,64.80
2023-04-02T11:01:33.639Z,63.72
2023-04-02T11:02:58.728Z,63.53
2023-04-02T11:04:08.447Z,63.73
2023-04-02T11:05:30.927Z,62.49
2023-04-02T11:06:37.567Z,62.86
2023-04-02T11:07:45.078Z,62.34
2023-04-02T11:08:47.977Z,61.70
2023-04-02T11:09:52.954Z,60.99
2023-04-02T11:11:14.630Z,62.48
2023-04-02T11:12:43.583Z,62.65
2023-04-02T11:14:03.773Z,63.11
2023-04-02T11:15:10.961Z,63.31
2023-04-02T11:16:15.614Z,65.23
2023-04-02T11:17:26.849Z,65.70
2023-04-02T11:18:34.471Z,67.02
2023-04-02T11:19:43.162Z,64.78
2023-04-02T11:20:56.602Z,63.77
2023-04-02T11:22:05.040Z,63.06
2023-04-02T11:23:13.043Z,63.10
2023-04-02T11:24:38.362Z,62.51
2023-04-02T11:25:41.817Z,63.03
2023-04-02T11:28:36.280Z,62.91
2023-04-02T11:29:46.515Z,62.36
2023-04-02T11:30:55.235Z,63.35
2023-04-02T11:32:33.668Z,62.32
2023-04-02T11:33:42.242Z,62.21
2023-04-02T11:35:26.321Z,62.75
2023-04-02T11:36:49.627Z,60.83
2023-04-02T11:37:51.755Z,62.03
2023-04-02T11:39:01.886Z,62.86
2023-04-02T11:40:22.402Z,62.52
2023-04-02T11:41:42.754Z,62.85
2023-04-02T11:42:48.660Z,62.61
2023-04-02T11:43:53.010Z,61.63
2023-04-02T11:44:54.936Z,61.41
2023-04-02T11:45:58.813Z,59.98
2023-04-02T11:47:15.115Z,60.25
2023-04-02T11:48:19.129Z,60.21
2023-04-02T11:49:36.303Z,60.94
2023-04-02T11:50:39.553Z,61.68
2023-04-02T11:51:52.270Z,61.24
2023-04-02T11:53:07.278Z,61.18
2023-04-02T11:54:27.229Z,61.07
2023-04-02T11:55:36.612Z,58.85
2023-04-02T11:56:53.143Z,60.35
2023-04-02T11:57:57.369Z,60.27
2023-04-02T11:59:20.996Z,61.76
2023-04-02T12:00:52.755Z,62.95
2023-04-02T12:02:09.177Z,60.16
2023-04-02T12:03:15.575Z,58.09
2023-04-02T12:04:23.994Z,58.08
2023-04-02T12:05:47.433Z,58.66
2023-04-02T12:07:00.389Z,58.71
2023-04-02T12:08:05.856Z,58.52
2023-04-02T12:09:10.471Z,60.03
2023-04-02T12:10:20.567Z,60.87
2023-04-02T12:11:36.289Z,59.62
2023-04-02T12:12:41.875Z,59.01
2023-04-02T12:13:43.864Z,59.11
2023-04-02T12:14:48.944Z,61.86
2023-04-02T12:15:52.929Z,61.56
2023-04-02T12:16:54.768Z,61.95
2023-04-02T12:18:13.146Z,61.47
2023-04-02T12:19:17.031Z,62.22
2023-04-02T12:22:01.101Z,62.18
2023-04-02T12:23:03.307Z,62.00
2023-04-02T12:24:36.576Z,59.97
2023-04-02T12:25:40.985Z,60.92
2023-04-02T12:26:46.357Z,61.80
2023-04-02T12:28:00.224Z,62.30
2023-04-02T12:29:14.841Z,61.88
2023-04-02T12:30:26.078Z,61.58
2023-04-02T12:31:28.023Z,60.21
2023-04-02T12:32:34.442Z,60.88
2023-04-02T12:33:37.669Z,61.03
2023-04-02T12:34:46.266Z,60.12
2023-04-02T12:35:56.414Z,58.30
2023-04-02T12:37:05.332Z,57.46
2023-04-02T12:38:18.331Z,58.52
2023-04-02T12:39:20.306Z,58.08
2023-04-02T12:40:21.906Z,58.17
2023-04-02T12:41:24.358Z,58.23
2023-04-02T12:42:29.093Z,59.20
2023-04-02T12:43:34.211Z,59.39
2023-04-02T12:44:36.062Z,60.76
2023-04-02T12:45:41.454Z,60.13
2023-04-02T12:46:57.362Z,59.05
2023-04-02T12:48:09.393Z,59.53
2023-04-02T12:49:15.232Z,58.83
2023-04-02T12:50:17.369Z,58.93
2023-04-02T12:51:34.701Z,58.88
2023-04-02T12:52:36.281Z,58.92
2023-04-02T12:53:39.627Z,58.03
2023-04-02T12:54:46.882Z,56.95
2023-04-02T12:55:54.215Z,57.20
2023-04-02T12:57:17.969Z,57.04
2023-04-02T12:58:25.825Z,57.49
2023-04-02T12:59:34.015Z,57.45
2023-04-02T13:00:36.484Z,55.39
2023-04-02T13:01:54.522Z,55.63
2023-04-02T13:03:01.327Z,56.48
2023-04-02T13:04:05.000Z,56.61
2023-04-02T13:05:06.685Z,58.00
2023-04-02T13:06:24.479Z,58.01
2023-04-02T13:07:27.017Z,58.46
2023-04-02T13:08:39.259Z,58.45
2023-04-02T13:09:45.650Z,58.19
2023-04-02T13:10:52.590Z,57.51
2023-04-02T13:11:54.164Z,58.68
2023-04-02T13:13:01.595Z,58.42
2023-04-02T13:15:28.759Z,59.30
2023-04-02T13:16:41.241Z,57.58
2023-04-02T13:17:54.354Z,58.01
2023-04-02T13:19:19.328Z,58.65
2023-04-02T13:20:58.619Z,57.54
2023-04-02T13:22:04.038Z,56.75
2023-04-02T13:23:24.744Z,56.19
2023-04-02T13:24:32.651Z,56.33
2023-04-02T13:25:36.260Z,54.56
2023-04-02T13:26:37.909Z,53.73
2023-04-02T13:27:40.558Z,54.63
2023-04-02T13:28:42.045Z,56.04
2023-04-02T13:29:53.852Z,54.60
2023-04-02T13:31:00.467Z,55.18
2023-04-02T13:32:03.787Z,56.29
2023-04-02T13:33:05.900Z,56.98
2023-04-02T13:34:07.913Z,56.08
2023-04-02T13:35:22.174Z,54.98
2023-04-02T13:36:25.146Z,55.54
2023-04-02T13:37:26.919Z,55.70
2023-04-02T13:38:33.673Z,55.54
2023-04-02T13:39:36.582Z,56.11
2023-04-02T13:40:38.821Z,56.14
2023-04-02T13:41:42.933Z,55.43
2023-04-02T13:42:46.006Z,54.88
2023-04-02T13:43:49.709Z,55.65
2023-04-02T13:44:51.381Z,55.81
2023-04-02T13:45:54.557Z,56.25
2023-04-02T13:46:56.895Z,54.20
2023-04-02T13:48:01.077Z,53.06
2023-04-02T13:49:10.975Z,53.93
2023-04-02T13:50:35.401Z,53.93
2023-04-02T13:51:50.277Z,54.33
2023-04-02T13:53:01.630Z,52.95
2023-04-02T13:54:34.268Z,52.55
2023-04-02T13:55:37.808Z,52.19
2023-04-02T13:56:40.061Z,53.54
2023-04-02T13:57:44.676Z,54.13
2023-04-02T13:58:46.536Z,54.24
2023-04-02T13:59:50.210Z,54.95
2023-04-02T14:00:51.776Z,55.76
2023-04-02T14:01:56.232Z,56.00
2023-04-02T14:03:00.425Z,56.78
2023-04-02T14:04:02.581Z,57.06
2023-04-02T14:05:14.407Z,56.10
2023-04-02T14:06:25.770Z,55.78
2023-04-02T14:07:29.825Z,54.79
2023-04-02T14:08:41.586Z,54.58
2023-04-02T14:09:51.152Z,54.60
2023-04-02T14:11:09.322Z,54.79
2023-04-02T14:12:10.848Z,55.78
2023-04-02T14:13:25.105Z,54.32
2023-04-02T14:14:45.606Z,54.56
2023-04-02T14:16:08.013Z,55.71
2023-04-02T14:17:17.118Z,55.77
2023-04-02T14:18:31.858Z,56.25
2023-04-02T14:19:33.643Z,56.19
2023-04-02T14:20:53.769Z,54.43
2023-04-02T14:22:09.958Z,54.10
2023-04-02T14:23:17.363Z,54.53
2023-04-02T14:24:34.088Z,55.84
2023-04-02T14:25:54.677Z,56.85
2023-04-02T14:27:08.818Z,57.45
2023-04-02T14:28:51.183Z,56.80
2023-04-02T14:29:56.310Z,57.22
2023-04-02T14:31:30.884Z,56.95
2023-04-02T14:32:55.715Z,57.67
2023-04-02T14:34:02.321Z,58.71
2023-04-02T14:35:35.188Z,58.76
2023-04-02T14:36:56.600Z,59.33
2023-04-02T14:38:10.658Z,57.93
2023-04-02T14:39:31.663Z,57.00
2023-04-02T14:40:50.490Z,57.40
2023-04-02T14:41:57.785Z,56.43
2023-04-02T14:43:06.681Z,56.58
2023-04-02T14:44:27.028Z,57.65
2023-04-02T14:46:02.977Z,57.59
2023-04-02T14:47:17.350Z,57.78
2023-04-02T14:48:38.412Z,58.31
2023-04-02T14:49:55.810Z,57.69
2023-04-02T14:51:06.671Z,57.70
2023-04-02T14:52:13.923Z,57.02
2023-04-02T14:53:23.924Z,58.11
2023-04-02T14:55:01.761Z,58.87
2023-04-02T14:56:41.488Z,57.68